sensor_id;sensor_type;location;lat;lon;timestamp;pressure;altitude;pressure_sealevel;temperature;humidity
45467;BME280;31212;49.734;8.490;2023-01-10T08:17:00;101045.31;;;3.59;95.51
45467;BME280;31212;49.734;8.490;2023-01-10T08:19:27;101039.47;;;4.06;94.38
45467;BME280;31212;49.734;8.490;2023-01-10T08:21:53;101022.75;;;4.85;92.30
45467;BME280;31212;49.734;8.490;2023-01-10T08:24:20;100962.47;;;5.54;88.96
45467;BME280;31212;49.734;8.490;2023-01-10T08:26:47;100874.34;;;6.22;86.03
45467;BME280;31212;49.734;8.490;2023-01-10T08:29:13;100771.88;;;6.80;83.12
45467;BME280;31212;49.734;8.490;2023-01-10T08:31:40;100640.06;;;7.12;79.78
45467;BME280;31212;49.734;8.490;2023-01-10T08:34:08;100537.47;;;7.48;77.00
45467;BME280;31212;49.734;8.490;2023-01-10T08:36:34;100453.41;;;7.68;74.54
45467;BME280;31212;49.734;8.490;2023-01-10T08:39:01;100384.97;;;8.03;73.32
45467;BME280;31212;49.734;8.490;2023-01-10T08:41:27;100332.69;;;8.27;71.75
45467;BME280;31212;49.734;8.490;2023-01-10T08:43:55;100292.88;;;8.13;70.61
45467;BME280;31212;49.734;8.490;2023-01-10T08:46:22;100316.97;;;8.10;71.10
45467;BME280;31212;49.734;8.490;2023-01-10T08:48:48;100294.56;;;8.11;70.02
45467;BME280;31212;49.734;8.490;2023-01-10T08:51:17;100313.88;;;7.67;70.86
45467;BME280;31212;49.734;8.490;2023-01-10T08:53:44;100365.19;;;6.90;71.77
45467;BME280;31212;49.734;8.490;2023-01-10T08:56:10;100443.28;;;6.37;73.33
45467;BME280;31212;49.734;8.490;2023-01-10T08:58:37;100539.72;;;6.07;75.32
45467;BME280;31212;49.734;8.490;2023-01-10T09:01:04;100588.47;;;5.98;75.90
45467;BME280;31212;49.734;8.490;2023-01-10T09:03:31;100628.22;;;5.74;77.01
45467;BME280;31212;49.734;8.490;2023-01-10T09:05:58;100675.00;;;5.58;77.09
45467;BME280;31212;49.734;8.490;2023-01-10T09:08:26;100711.72;;;5.52;77.79
45467;BME280;31212;49.734;8.490;2023-01-10T09:10:53;100723.75;;;5.51;78.06
45467;BME280;31212;49.734;8.490;2023-01-10T09:13:20;100744.34;;;5.51;79.07
45467;BME280;31212;49.734;8.490;2023-01-10T09:15:46;100754.66;;;5.51;78.74
45467;BME280;31212;49.734;8.490;2023-01-10T09:18:13;100770.03;;;5.48;79.07
45467;BME280;31212;49.734;8.490;2023-01-10T09:20:40;100784.50;;;5.45;79.33
45467;BME280;31212;49.734;8.490;2023-01-10T09:23:09;100798.16;;;5.42;79.32
45467;BME280;31212;49.734;8.490;2023-01-10T09:25:37;100810.84;;;5.36;80.06
45467;BME280;31212;49.734;8.490;2023-01-10T09:28:05;100814.41;;;5.41;79.51
45467;BME280;31212;49.734;8.490;2023-01-10T09:30:31;100803.50;;;5.48;79.15
45467;BME280;31212;49.734;8.490;2023-01-10T09:32:58;100803.53;;;5.50;79.34
45467;BME280;31212;49.734;8.490;2023-01-10T09:35:26;100822.13;;;5.41;79.37
45467;BME280;31212;49.734;8.490;2023-01-10T09:37:53;100831.72;;;5.45;79.57
45467;BME280;31212;49.734;8.490;2023-01-10T09:40:32;100826.56;;;5.45;79.45
45467;BME280;31212;49.734;8.490;2023-01-10T09:43:07;100826.75;;;5.51;79.47
45467;BME280;31212;49.734;8.490;2023-01-10T09:45:38;100810.25;;;5.45;79.08
45467;BME280;31212;49.734;8.490;2023-01-10T09:48:14;100797.72;;;5.57;78.62
45467;BME280;31212;49.734;8.490;2023-01-10T09:50:48;100793.63;;;5.64;78.40
45467;BME280;31212;49.734;8.490;2023-01-10T09:53:22;100780.13;;;5.71;78.24
45467;BME280;31212;49.734;8.490;2023-01-10T09:55:53;100748.81;;;5.87;77.36
45467;BME280;31212;49.734;8.490;2023-01-10T09:58:24;100735.53;;;6.04;77.37
45467;BME280;31212;49.734;8.490;2023-01-10T10:00:55;100694.41;;;6.09;75.98
45467;BME280;31212;49.734;8.490;2023-01-10T10:03:29;100689.19;;;6.05;76.57
45467;BME280;31212;49.734;8.490;2023-01-10T10:05:58;100684.75;;;6.00;76.21
45467;BME280;31212;49.734;8.490;2023-01-10T10:08:25;100681.97;;;5.94;75.98
45467;BME280;31212;49.734;8.490;2023-01-10T10:11:02;100688.88;;;5.95;76.18
45467;BME280;31212;49.734;8.490;2023-01-10T10:13:42;100699.16;;;5.95;76.09
45467;BME280;31212;49.734;8.490;2023-01-10T10:16:26;100699.47;;;6.04;76.29
45467;BME280;31212;49.734;8.490;2023-01-10T10:19:01;100700.31;;;6.04;75.83
45467;BME280;31212;49.734;8.490;2023-01-10T10:21:37;100682.38;;;6.08;75.61
45467;BME280;31212;49.734;8.490;2023-01-10T10:24:18;100662.66;;;6.10;75.76
45467;BME280;31212;49.734;8.490;2023-01-10T10:26:55;100677.31;;;6.12;75.78
45467;BME280;31212;49.734;8.490;2023-01-10T10:29:44;100675.78;;;6.19;75.72
45467;BME280;31212;49.734;8.490;2023-01-10T10:32:25;100683.66;;;6.23;75.97
45467;BME280;31212;49.734;8.490;2023-01-10T10:34:57;100685.47;;;6.28;75.34
45467;BME280;31212;49.734;8.490;2023-01-10T10:37:27;100657.94;;;6.27;74.90
45467;BME280;31212;49.734;8.490;2023-01-10T10:40:00;100647.75;;;6.33;74.67
45467;BME280;31212;49.734;8.490;2023-01-10T10:42:29;100636.50;;;6.29;74.50
45467;BME280;31212;49.734;8.490;2023-01-10T10:45:00;100670.00;;;6.28;74.84
45467;BME280;31212;49.734;8.490;2023-01-10T10:47:31;100683.03;;;6.34;75.67
45467;BME280;31212;49.734;8.490;2023-01-10T10:50:06;100677.03;;;6.35;75.58
45467;BME280;31212;49.734;8.490;2023-01-10T10:52:35;100671.47;;;6.19;75.51
45467;BME280;31212;49.734;8.490;2023-01-10T10:55:03;100687.91;;;6.23;75.28
45467;BME280;31212;49.734;8.490;2023-01-10T10:57:34;100693.88;;;6.22;75.89
45467;BME280;31212;49.734;8.490;2023-01-10T11:00:06;100688.56;;;6.14;75.97
45467;BME280;31212;49.734;8.490;2023-01-10T11:02:40;100697.88;;;6.09;75.43
45467;BME280;31212;49.734;8.490;2023-01-10T11:05:15;100711.63;;;6.10;76.46
45467;BME280;31212;49.734;8.490;2023-01-10T11:07:43;100695.94;;;6.02;76.14
45467;BME280;31212;49.734;8.490;2023-01-10T11:10:13;100685.56;;;5.99;75.62
45467;BME280;31212;49.734;8.490;2023-01-10T11:12:54;100684.94;;;6.08;75.38
45467;BME280;31212;49.734;8.490;2023-01-10T11:15:38;100693.44;;;6.03;75.83
45467;BME280;31212;49.734;8.490;2023-01-10T11:18:10;100717.72;;;6.12;75.95
45467;BME280;31212;49.734;8.490;2023-01-10T11:20:45;100711.84;;;6.17;76.39
45467;BME280;31212;49.734;8.490;2023-01-10T11:23:21;100720.53;;;6.21;76.32
45467;BME280;31212;49.734;8.490;2023-01-10T11:25:48;100710.63;;;6.38;76.02
45467;BME280;31212;49.734;8.490;2023-01-10T11:28:15;100681.09;;;6.60;75.70
45467;BME280;31212;49.734;8.490;2023-01-10T11:30:47;100635.41;;;6.94;74.16
45467;BME280;31212;49.734;8.490;2023-01-10T11:33:19;100592.06;;;7.68;72.95
45467;BME280;31212;49.734;8.490;2023-01-10T11:35:56;100496.00;;;8.52;70.83
45467;BME280;31212;49.734;8.490;2023-01-10T11:38:25;100359.28;;;8.97;68.52
45467;BME280;31212;49.734;8.490;2023-01-10T11:40:57;100287.56;;;8.83;67.50
45467;BME280;31212;49.734;8.490;2023-01-10T11:43:26;100288.47;;;8.88;67.55
45467;BME280;31212;49.734;8.490;2023-01-10T11:45:56;100270.19;;;8.70;67.19
45467;BME280;31212;49.734;8.490;2023-01-10T11:48:33;100280.81;;;8.12;68.38
45467;BME280;31212;49.734;8.490;2023-01-10T11:51:15;100335.34;;;7.64;68.64
45467;BME280;31212;49.734;8.490;2023-01-10T11:53:43;100419.13;;;7.23;70.16
45467;BME280;31212;49.734;8.490;2023-01-10T11:56:12;100484.22;;;7.07;71.40
45467;BME280;31212;49.734;8.490;2023-01-10T11:58:40;100550.13;;;6.89;72.75
45467;BME280;31212;49.734;8.490;2023-01-10T12:01:24;100605.81;;;6.78;73.68
45467;BME280;31212;49.734;8.490;2023-01-10T12:03:52;100634.28;;;6.83;73.73
45467;BME280;31212;49.734;8.490;2023-01-10T12:06:19;100642.06;;;6.84;74.05
45467;BME280;31212;49.734;8.490;2023-01-10T12:08:46;100613.00;;;6.93;73.75
45467;BME280;31212;49.734;8.490;2023-01-10T12:11:23;100548.28;;;7.27;72.12
45467;BME280;31212;49.734;8.490;2023-01-10T12:13:52;100490.31;;;7.11;72.00
45467;BME280;31212;49.734;8.490;2023-01-10T12:16:22;100504.03;;;7.08;72.07
45467;BME280;31212;49.734;8.490;2023-01-10T12:18:51;100538.72;;;7.22;71.95
45467;BME280;31212;49.734;8.490;2023-01-10T12:21:22;100493.22;;;7.29;71.95
45467;BME280;31212;49.734;8.490;2023-01-10T12:23:53;100515.38;;;7.16;71.63
45467;BME280;31212;49.734;8.490;2023-01-10T12:26:20;100461.06;;;7.10;71.50
45467;BME280;31212;49.734;8.490;2023-01-10T12:28:49;100416.28;;;7.10;70.07
45467;BME280;31212;49.734;8.490;2023-01-10T12:31:21;100379.19;;;7.04;69.88
45467;BME280;31212;49.734;8.490;2023-01-10T12:33:52;100437.09;;;7.19;70.47
45467;BME280;31212;49.734;8.490;2023-01-10T12:36:36;100396.88;;;7.33;69.86
45467;BME280;31212;49.734;8.490;2023-01-10T12:39:13;100336.44;;;7.22;69.12
45467;BME280;31212;49.734;8.490;2023-01-10T12:41:50;100354.47;;;7.19;69.23
45467;BME280;31212;49.734;8.490;2023-01-10T12:44:38;100390.53;;;7.13;69.65
45467;BME280;31212;49.734;8.490;2023-01-10T12:47:16;100372.38;;;7.10;69.49
45467;BME280;31212;49.734;8.490;2023-01-10T12:49:48;100355.09;;;7.04;69.18
45467;BME280;31212;49.734;8.490;2023-01-10T12:52:21;100362.69;;;6.96;70.21
45467;BME280;31212;49.734;8.490;2023-01-10T12:54:49;100346.34;;;6.94;69.18
45467;BME280;31212;49.734;8.490;2023-01-10T12:57:23;100339.44;;;6.95;69.29
45467;BME280;31212;49.734;8.490;2023-01-10T12:59:52;100367.97;;;7.02;70.15
45467;BME280;31212;49.734;8.490;2023-01-10T13:02:24;100356.97;;;7.13;69.63
45467;BME280;31212;49.734;8.490;2023-01-10T13:04:55;100381.38;;;7.32;69.98
45467;BME280;31212;49.734;8.490;2023-01-10T13:07:26;100384.16;;;7.46;68.82
45467;BME280;31212;49.734;8.490;2023-01-10T13:09:56;100348.81;;;7.43;69.34
45467;BME280;31212;49.734;8.490;2023-01-10T13:12:29;100327.19;;;7.35;68.72
45467;BME280;31212;49.734;8.490;2023-01-10T13:15:03;100340.03;;;7.30;69.26
45467;BME280;31212;49.734;8.490;2023-01-10T13:17:44;100352.81;;;7.22;69.58
45467;BME280;31212;49.734;8.490;2023-01-10T13:20:39;100389.81;;;7.21;69.69
45467;BME280;31212;49.734;8.490;2023-01-10T13:23:22;100413.78;;;7.14;70.09
45467;BME280;31212;49.734;8.490;2023-01-10T13:25:56;100382.63;;;7.03;69.59
45467;BME280;31212;49.734;8.490;2023-01-10T13:28:24;100388.44;;;6.92;69.90
45467;BME280;31212;49.734;8.490;2023-01-10T13:30:54;100433.50;;;7.09;69.99
45467;BME280;31212;49.734;8.490;2023-01-10T13:33:25;100432.72;;;7.15;70.42
45467;BME280;31212;49.734;8.490;2023-01-10T13:35:55;100425.00;;;7.16;70.24
45467;BME280;31212;49.734;8.490;2023-01-10T13:38:26;100424.81;;;7.05;69.77
45467;BME280;31212;49.734;8.490;2023-01-10T13:40:59;100389.50;;;7.04;69.66
45467;BME280;31212;49.734;8.490;2023-01-10T13:43:36;100378.91;;;6.87;69.10
45467;BME280;31212;49.734;8.490;2023-01-10T13:46:36;100409.66;;;6.75;69.73
45467;BME280;31212;49.734;8.490;2023-01-10T13:55:26;100472.19;;;6.63;70.81
45467;BME280;31212;49.734;8.490;2023-01-10T13:57:56;100462.63;;;6.57;70.73
45467;BME280;31212;49.734;8.490;2023-01-10T14:00:50;100483.25;;;6.57;71.57
45467;BME280;31212;49.734;8.490;2023-01-10T14:03:45;100489.25;;;6.56;71.13
45467;BME280;31212;49.734;8.490;2023-01-10T14:06:32;100461.66;;;6.52;71.66
45467;BME280;31212;49.734;8.490;2023-01-10T14:09:38;100470.19;;;6.48;70.98
45467;BME280;31212;49.734;8.490;2023-01-10T14:12:16;100495.06;;;6.48;72.13
45467;BME280;31212;49.734;8.490;2023-01-10T14:14:51;100528.66;;;6.49;72.25
45467;BME280;31212;49.734;8.490;2023-01-10T14:17:22;100516.44;;;6.40;73.02
45467;BME280;31212;49.734;8.490;2023-01-10T14:19:59;100507.69;;;6.34;71.96
45467;BME280;31212;49.734;8.490;2023-01-10T14:22:28;100523.91;;;6.28;72.41
45467;BME280;31212;49.734;8.490;2023-01-10T14:24:56;100553.00;;;6.22;73.10
45467;BME280;31212;49.734;8.490;2023-01-10T14:27:27;100578.75;;;6.21;73.81
45467;BME280;31212;49.734;8.490;2023-01-10T14:29:59;100580.44;;;6.20;73.77
45467;BME280;31212;49.734;8.490;2023-01-10T14:32:30;100563.88;;;6.11;73.71
45467;BME280;31212;49.734;8.490;2023-01-10T14:35:00;100579.41;;;6.14;74.36
45467;BME280;31212;49.734;8.490;2023-01-10T14:37:30;100556.78;;;6.02;73.39
45467;BME280;31212;49.734;8.490;2023-01-10T14:40:04;100563.59;;;5.98;74.27
45467;BME280;31212;49.734;8.490;2023-01-10T14:42:33;100580.66;;;5.96;74.39
45467;BME280;31212;49.734;8.490;2023-01-10T14:45:11;100563.28;;;5.87;73.59
45467;BME280;31212;49.734;8.490;2023-01-10T14:47:41;100565.75;;;5.83;74.17
45467;BME280;31212;49.734;8.490;2023-01-10T14:50:21;100571.00;;;5.86;74.21
45467;BME280;31212;49.734;8.490;2023-01-10T14:52:48;100569.06;;;5.79;74.07
45467;BME280;31212;49.734;8.490;2023-01-10T14:55:16;100586.34;;;5.83;74.66
45467;BME280;31212;49.734;8.490;2023-01-10T14:57:53;100589.72;;;5.80;74.28
45467;BME280;31212;49.734;8.490;2023-01-10T15:00:25;100591.47;;;5.81;74.69
45467;BME280;31212;49.734;8.490;2023-01-10T15:02:52;100557.88;;;5.77;73.89
45467;BME280;31212;49.734;8.490;2023-01-10T15:05:20;100559.63;;;5.78;74.63
45467;BME280;31212;49.734;8.490;2023-01-10T15:07:49;100557.75;;;5.72;74.42
45467;BME280;31212;49.734;8.490;2023-01-10T15:10:21;100558.63;;;5.72;74.25
45467;BME280;31212;49.734;8.490;2023-01-10T15:12:50;100555.88;;;5.66;74.27
45467;BME280;31212;49.734;8.490;2023-01-10T15:15:23;100566.97;;;5.64;74.77
45467;BME280;31212;49.734;8.490;2023-01-10T15:17:53;100575.53;;;5.63;74.51
45467;BME280;31212;49.734;8.490;2023-01-10T15:20:20;100571.28;;;5.63;74.75
45467;BME280;31212;49.734;8.490;2023-01-10T15:22:52;100557.56;;;5.64;74.23
45467;BME280;31212;49.734;8.490;2023-01-10T15:25:28;100551.34;;;5.56;74.33
45467;BME280;31212;49.734;8.490;2023-01-10T15:27:58;100574.47;;;5.54;74.84
45467;BME280;31212;49.734;8.490;2023-01-10T15:30:30;100583.97;;;5.57;75.01
45467;BME280;31212;49.734;8.490;2023-01-10T15:33:02;100564.16;;;5.54;74.48
45467;BME280;31212;49.734;8.490;2023-01-10T15:35:30;100566.75;;;5.54;74.59
45467;BME280;31212;49.734;8.490;2023-01-10T15:38:03;100559.81;;;5.52;74.45
45467;BME280;31212;49.734;8.490;2023-01-10T15:40:32;100552.00;;;5.49;75.08
45467;BME280;31212;49.734;8.490;2023-01-10T15:43:10;100519.47;;;5.51;74.50
45467;BME280;31212;49.734;8.490;2023-01-10T15:45:38;100521.09;;;5.49;74.46
45467;BME280;31212;49.734;8.490;2023-01-10T15:48:24;100520.03;;;5.41;74.73
45467;BME280;31212;49.734;8.490;2023-01-10T15:50:53;100521.88;;;5.45;74.76
45467;BME280;31212;49.734;8.490;2023-01-10T15:53:50;100531.25;;;5.43;74.61
45467;BME280;31212;49.734;8.490;2023-01-10T15:56:21;100525.38;;;5.47;74.51
45467;BME280;31212;49.734;8.490;2023-01-10T15:58:51;100524.59;;;5.51;74.44
45467;BME280;31212;49.734;8.490;2023-01-10T16:01:19;100504.03;;;5.52;74.38
45467;BME280;31212;49.734;8.490;2023-01-10T16:03:48;100517.63;;;5.47;74.55
45467;BME280;31212;49.734;8.490;2023-01-10T16:06:23;100535.66;;;5.47;75.37
45467;BME280;31212;49.734;8.490;2023-01-10T16:08:52;100544.03;;;5.39;75.02
45467;BME280;31212;49.734;8.490;2023-01-10T16:11:23;100546.06;;;5.51;74.88
45467;BME280;31212;49.734;8.490;2023-01-10T16:14:08;100548.53;;;5.47;75.09
45467;BME280;31212;49.734;8.490;2023-01-10T16:16:37;100561.28;;;5.42;75.43
45467;BME280;31212;49.734;8.490;2023-01-10T16:19:05;100579.22;;;5.39;75.68
45467;BME280;31212;49.734;8.490;2023-01-10T16:21:34;100582.50;;;5.33;76.02
45467;BME280;31212;49.734;8.490;2023-01-10T16:24:02;100585.97;;;5.35;76.03
45467;BME280;31212;49.734;8.490;2023-01-10T16:26:30;100580.00;;;5.36;75.97
45467;BME280;31212;49.734;8.490;2023-01-10T16:28:57;100579.06;;;5.34;75.92
45467;BME280;31212;49.734;8.490;2023-01-10T16:31:23;100592.09;;;5.39;76.22
45467;BME280;31212;49.734;8.490;2023-01-10T16:33:51;100603.75;;;5.26;76.74
45467;BME280;31212;49.734;8.490;2023-01-10T16:36:18;100612.47;;;5.31;76.72
45467;BME280;31212;49.734;8.490;2023-01-10T16:38:45;100621.94;;;5.32;76.77
45467;BME280;31212;49.734;8.490;2023-01-10T16:41:12;100627.84;;;5.28;77.12
45467;BME280;31212;49.734;8.490;2023-01-10T16:43:57;100629.59;;;5.29;77.38
45467;BME280;31212;49.734;8.490;2023-01-10T16:46:25;100610.72;;;5.30;76.86
45467;BME280;31212;49.734;8.490;2023-01-10T16:48:53;100578.97;;;5.30;76.33
45467;BME280;31212;49.734;8.490;2023-01-10T16:51:21;100587.66;;;5.33;76.72
45467;BME280;31212;49.734;8.490;2023-01-10T16:53:48;100572.09;;;5.30;76.21
45467;BME280;31212;49.734;8.490;2023-01-10T16:56:17;100579.06;;;5.34;76.56
45467;BME280;31212;49.734;8.490;2023-01-10T16:58:45;100561.03;;;5.33;76.48
45467;BME280;31212;49.734;8.490;2023-01-10T17:01:14;100531.94;;;5.37;75.51
45467;BME280;31212;49.734;8.490;2023-01-10T17:03:42;100530.41;;;5.44;75.70
45467;BME280;31212;49.734;8.490;2023-01-10T17:06:11;100514.13;;;5.45;75.71
45467;BME280;31212;49.734;8.490;2023-01-10T17:08:39;100503.53;;;5.32;75.87
45467;BME280;31212;49.734;8.490;2023-01-10T17:11:11;100519.84;;;5.33;76.00
45467;BME280;31212;49.734;8.490;2023-01-10T17:13:41;100521.59;;;5.34;76.11
45467;BME280;31212;49.734;8.490;2023-01-10T17:16:08;100505.34;;;5.36;75.97
45467;BME280;31212;49.734;8.490;2023-01-10T17:18:34;100502.69;;;5.33;75.62
45467;BME280;31212;49.734;8.490;2023-01-10T17:21:01;100488.97;;;5.34;75.65
45467;BME280;31212;49.734;8.490;2023-01-10T17:23:29;100482.19;;;5.36;75.71
45467;BME280;31212;49.734;8.490;2023-01-10T17:26:00;100484.84;;;5.41;75.35
45467;BME280;31212;49.734;8.490;2023-01-10T17:28:27;100482.97;;;5.34;76.04
45467;BME280;31212;49.734;8.490;2023-01-10T17:30:54;100489.69;;;5.29;76.12
45467;BME280;31212;49.734;8.490;2023-01-10T17:33:21;100479.44;;;5.30;75.53
45467;BME280;31212;49.734;8.490;2023-01-10T17:35:51;100482.53;;;5.17;75.60
45467;BME280;31212;49.734;8.490;2023-01-10T17:38:18;100476.03;;;5.31;75.76
45467;BME280;31212;49.734;8.490;2023-01-10T17:40:47;100450.97;;;5.24;75.38
45467;BME280;31212;49.734;8.490;2023-01-10T17:43:14;100439.16;;;5.32;75.32
45467;BME280;31212;49.734;8.490;2023-01-10T17:45:43;100410.69;;;5.26;74.82
45467;BME280;31212;49.734;8.490;2023-01-10T17:48:11;100412.47;;;5.29;75.27
45467;BME280;31212;49.734;8.490;2023-01-10T17:50:40;100409.88;;;5.27;74.97
45467;BME280;31212;49.734;8.490;2023-01-10T17:53:07;100400.38;;;5.25;75.46
45467;BME280;31212;49.734;8.490;2023-01-10T17:55:33;100395.19;;;5.23;74.90
45467;BME280;31212;49.734;8.490;2023-01-10T17:58:01;100410.66;;;5.25;75.09
45467;BME280;31212;49.734;8.490;2023-01-10T18:00:28;100408.13;;;5.26;75.08
45467;BME280;31212;49.734;8.490;2023-01-10T18:02:56;100405.44;;;5.21;75.46
45467;BME280;31212;49.734;8.490;2023-01-10T18:05:22;100409.59;;;5.16;75.84
45467;BME280;31212;49.734;8.490;2023-01-10T18:07:49;100401.91;;;5.18;75.34
45467;BME280;31212;49.734;8.490;2023-01-10T18:10:15;100429.50;;;5.23;75.63
45467;BME280;31212;49.734;8.490;2023-01-10T18:12:42;100441.41;;;5.18;76.16
45467;BME280;31212;49.734;8.490;2023-01-10T18:15:10;100454.44;;;5.26;75.85
45467;BME280;31212;49.734;8.490;2023-01-10T18:17:37;100438.91;;;5.21;75.83
45467;BME280;31212;49.734;8.490;2023-01-10T18:20:11;100452.66;;;5.23;76.35
45467;BME280;31212;49.734;8.490;2023-01-10T18:22:38;100443.41;;;5.30;75.38
45467;BME280;31212;49.734;8.490;2023-01-10T18:25:22;100446.78;;;5.28;76.10
45467;BME280;31212;49.734;8.490;2023-01-10T18:27:49;100434.00;;;5.31;75.69
45467;BME280;31212;49.734;8.490;2023-01-10T18:30:18;100421.38;;;5.42;75.60
45467;BME280;31212;49.734;8.490;2023-01-10T18:32:46;100400.03;;;5.46;74.99
45467;BME280;31212;49.734;8.490;2023-01-10T18:35:13;100381.94;;;5.43;74.92
45467;BME280;31212;49.734;8.490;2023-01-10T18:37:39;100393.19;;;5.48;74.81
45467;BME280;31212;49.734;8.490;2023-01-10T18:40:07;100386.44;;;5.53;74.90
45467;BME280;31212;49.734;8.490;2023-01-10T18:42:34;100387.38;;;5.55;74.25
45467;BME280;31212;49.734;8.490;2023-01-10T18:45:00;100385.53;;;5.49;74.72
45467;BME280;31212;49.734;8.490;2023-01-10T18:47:28;100377.97;;;5.57;74.65
45467;BME280;31212;49.734;8.490;2023-01-10T18:49:55;100378.75;;;5.54;74.76
45467;BME280;31212;49.734;8.490;2023-01-10T18:52:21;100405.38;;;5.53;74.99
45467;BME280;31212;49.734;8.490;2023-01-10T18:54:49;100433.47;;;5.44;75.24
45467;BME280;31212;49.734;8.490;2023-01-10T18:57:16;100470.91;;;5.33;76.10
45467;BME280;31212;49.734;8.490;2023-01-10T18:59:43;100528.13;;;5.21;76.91
45467;BME280;31212;49.734;8.490;2023-01-10T19:02:10;100550.19;;;5.13;77.57
45467;BME280;31212;49.734;8.490;2023-01-10T19:04:39;100568.78;;;5.02;77.78
45467;BME280;31212;49.734;8.490;2023-01-10T19:07:06;100591.84;;;4.99;78.63
45467;BME280;31212;49.734;8.490;2023-01-10T19:09:32;100586.09;;;5.08;78.21
45467;BME280;31212;49.734;8.490;2023-01-10T19:11:59;100604.78;;;5.01;78.51
45467;BME280;31212;49.734;8.490;2023-01-10T19:14:25;100620.88;;;4.95;78.91
45467;BME280;31212;49.734;8.490;2023-01-10T19:16:52;100630.09;;;4.88;79.58
45467;BME280;31212;49.734;8.490;2023-01-10T19:19:18;100677.75;;;4.76;80.20
45467;BME280;31212;49.734;8.490;2023-01-10T19:21:46;100709.38;;;4.73;81.49
45467;BME280;31212;49.734;8.490;2023-01-10T19:24:20;100735.53;;;4.60;82.20
45467;BME280;31212;49.734;8.490;2023-01-10T19:26:46;100757.34;;;4.45;83.80
45467;BME280;31212;49.734;8.490;2023-01-10T19:29:13;100774.00;;;4.31;84.51
45467;BME280;31212;49.734;8.490;2023-01-10T19:31:39;100781.44;;;4.23;85.85
45467;BME280;31212;49.734;8.490;2023-01-10T19:34:08;100791.28;;;4.11;87.50
45467;BME280;31212;49.734;8.490;2023-01-10T19:36:35;100794.34;;;4.00;88.55
45467;BME280;31212;49.734;8.490;2023-01-10T19:39:04;100802.84;;;3.99;89.38
45467;BME280;31212;49.734;8.490;2023-01-10T19:41:32;100807.91;;;3.96;89.91
45467;BME280;31212;49.734;8.490;2023-01-10T19:44:01;100819.53;;;3.86;91.19
45467;BME280;31212;49.734;8.490;2023-01-10T19:46:28;100828.16;;;3.88;91.96
45467;BME280;31212;49.734;8.490;2023-01-10T19:48:57;100831.66;;;3.91;92.58
45467;BME280;31212;49.734;8.490;2023-01-10T19:51:26;100840.94;;;3.87;92.91
45467;BME280;31212;49.734;8.490;2023-01-10T19:53:53;100833.84;;;3.80;93.77
45467;BME280;31212;49.734;8.490;2023-01-10T19:56:20;100844.06;;;3.78;94.69
45467;BME280;31212;49.734;8.490;2023-01-10T19:58:47;100849.06;;;3.75;95.33
45467;BME280;31212;49.734;8.490;2023-01-10T20:01:16;100850.00;;;3.77;95.96
45467;BME280;31212;49.734;8.490;2023-01-10T20:03:44;100850.97;;;3.79;95.91
45467;BME280;31212;49.734;8.490;2023-01-10T20:06:14;100845.81;;;3.79;96.36
45467;BME280;31212;49.734;8.490;2023-01-10T20:08:41;100849.94;;;3.76;96.28
45467;BME280;31212;49.734;8.490;2023-01-10T20:11:08;100850.81;;;3.76;96.72
45467;BME280;31212;49.734;8.490;2023-01-10T20:13:38;100845.97;;;3.84;96.46
45467;BME280;31212;49.734;8.490;2023-01-10T20:16:09;100841.66;;;3.83;96.43
45467;BME280;31212;49.734;8.490;2023-01-10T20:18:36;100836.72;;;3.87;96.52
45467;BME280;31212;49.734;8.490;2023-01-10T20:21:03;100835.94;;;3.90;96.46
45467;BME280;31212;49.734;8.490;2023-01-10T20:23:30;100831.81;;;3.95;96.06
45467;BME280;31212;49.734;8.490;2023-01-10T20:25:58;100832.47;;;3.90;96.23
45467;BME280;31212;49.734;8.490;2023-01-10T20:28:26;100813.75;;;3.92;96.00
45467;BME280;31212;49.734;8.490;2023-01-10T20:30:54;100806.09;;;3.94;96.04
45467;BME280;31212;49.734;8.490;2023-01-10T20:33:21;100809.56;;;3.94;95.64
45467;BME280;31212;49.734;8.490;2023-01-10T20:35:55;100788.34;;;4.00;95.65
45467;BME280;31212;49.734;8.490;2023-01-10T20:38:23;100794.06;;;3.93;95.51
45467;BME280;31212;49.734;8.490;2023-01-10T20:40:55;100801.91;;;3.96;95.32
45467;BME280;31212;49.734;8.490;2023-01-10T20:43:21;100794.44;;;4.03;95.13
45467;BME280;31212;49.734;8.490;2023-01-10T20:45:48;100785.81;;;4.01;94.82
45467;BME280;31212;49.734;8.490;2023-01-10T20:48:16;100782.50;;;4.04;94.67
45467;BME280;31212;49.734;8.490;2023-01-10T20:50:43;100770.41;;;4.01;94.49
45467;BME280;31212;49.734;8.490;2023-01-10T20:53:10;100778.13;;;4.01;94.00
45467;BME280;31212;49.734;8.490;2023-01-10T20:55:37;100776.53;;;4.05;93.93
45467;BME280;31212;49.734;8.490;2023-01-10T20:58:05;100765.75;;;4.15;93.82
45467;BME280;31212;49.734;8.490;2023-01-10T21:00:33;100753.84;;;4.17;93.05
45467;BME280;31212;49.734;8.490;2023-01-10T21:03:00;100741.94;;;4.21;92.69
45467;BME280;31212;49.734;8.490;2023-01-10T21:05:28;100732.56;;;4.21;92.38
45467;BME280;31212;49.734;8.490;2023-01-10T21:07:54;100734.91;;;4.15;92.61
45467;BME280;31212;49.734;8.490;2023-01-10T21:10:21;100732.53;;;4.20;92.68
45467;BME280;31212;49.734;8.490;2023-01-10T21:12:47;100735.09;;;4.20;92.20
45467;BME280;31212;49.734;8.490;2023-01-10T21:15:14;100738.63;;;4.24;92.80
45467;BME280;31212;49.734;8.490;2023-01-10T21:17:40;100739.59;;;4.27;92.61
45467;BME280;31212;49.734;8.490;2023-01-10T21:20:09;100736.28;;;4.30;92.16
45467;BME280;31212;49.734;8.490;2023-01-10T21:22:37;100733.84;;;4.34;92.07
45467;BME280;31212;49.734;8.490;2023-01-10T21:25:04;100735.63;;;4.37;92.03
45467;BME280;31212;49.734;8.490;2023-01-10T21:27:31;100716.78;;;4.36;91.61
45467;BME280;31212;49.734;8.490;2023-01-10T21:29:58;100709.22;;;4.41;91.21
45467;BME280;31212;49.734;8.490;2023-01-10T21:32:25;100695.53;;;4.42;91.03
45467;BME280;31212;49.734;8.490;2023-01-10T21:34:51;100684.34;;;4.40;90.72
45467;BME280;31212;49.734;8.490;2023-01-10T21:37:18;100669.88;;;4.44;90.34
45467;BME280;31212;49.734;8.490;2023-01-10T21:39:46;100659.56;;;4.42;89.77